• Join FlightAware (Why Join?)
  • Login
  • US Flag 
11:35PM EDT


 

Airport Tracker/Info


-or-


 

Live Flight TrackerFlight Track Log ✈ UAE179 ✈ 30-Sep-2013 ✈ OMDB / DXB - EPWA / WAW

Flight Track Log - Related Links

Times and Time Zones

All times are in EDT time to prevent confusion due to time zone crossing. See the UAE179 flight status page for this flight to view local times or setup timezone preferences in your user account.

Time Position Orientation Groundspeed Altitude Reporting Facility
EDT Latitude Longitude Course Direction KTS MPH feet Rate Location/Type
11:51PM 25.3912 55.2680 325° Northwest  Level Estimated
11:53PM 25.4407 55.2308 325° Northwest  Level Estimated
11:54PM 25.5280 55.1633 325° Northwest  Level Estimated
11:55PM 25.6153 55.0957 325° Northwest  Level Estimated
11:56PM 25.7026 55.0281 325° Northwest  Level Estimated
11:57PM 25.2510 55.3750 306° West 84 97  Level FlightAware
11:57PM 25.2590 55.3600 301° West 175 201 1,140 Level FlightAware
11:58PM 25.2690 55.3430 303° West 176 203 900 2,580 Climbing FlightAware
11:58PM 25.2750 55.3310 299° West 169 194 1,600 1,500 Climbing FlightAware
11:58PM 25.2840 55.3160 304° West 191 220 1,800 600 Climbing FlightAware
11:59PM 25.2940 55.2980 302° West 209 241 2,000 780 Climbing FlightAware
11:59PM 25.3030 55.2820 302° West 228 262 2,300 1,500 Climbing FlightAware
11:59PM 25.3140 55.2620 301° West 235 270 2,900 1,980 Climbing FlightAware
12:00AM 25.3250 55.2410 300° West 241 277 3,600 2,340 Climbing FlightAware
12:00AM 25.3370 55.2180 300° West 242 278 4,500 2,340 Climbing FlightAware
12:00AM 25.3430 55.2060 299° West 240 276 4,900 2,100 Climbing FlightAware
12:00AM 25.3460 55.1960 288° West 241 277 5,200 1,980 Climbing FlightAware
12:00AM 25.3470 55.1880 278° West 243 280 5,400 1,260 Climbing FlightAware
12:01AM 25.3430 55.1610 261° West 261 300 5,800 1,560 Climbing FlightAware
12:01AM 25.3360 55.1280 257° West 273 314 6,600 1,920 Climbing FlightAware
12:01AM 25.3310 55.1020 258° West 277 319 7,200 2,100 Climbing FlightAware
12:02AM 25.3260 55.0710 260° West 284 327 8,000 1,740 Climbing FlightAware
12:02AM 25.3210 55.0480 256° West 298 343 8,300 1,200 Climbing FlightAware
12:02AM 25.3200 55.0350 265° West 309 356 8,500 1,680 Climbing FlightAware
12:03AM 25.3280 54.9980 283° West 317 365 9,200 1,860 Climbing FlightAware
12:03AM 25.3380 54.9600 286° West 328 377 10,000 1,440 Climbing FlightAware
12:04AM 25.3520 54.9060 286° West 351 404 10,600 900 Climbing FlightAware
12:04AM 25.3650 54.8510 285° West 381 438 11,000 1,140 Climbing FlightAware
12:05AM 25.3830 54.7790 285° West 403 464 11,900 2,100 Climbing FlightAware
12:05AM 25.4030 54.7010 286° West 396 456 13,600 2,460 Climbing FlightAware
12:06AM 25.4190 54.6350 285° West 388 447 15,000 2,040 Climbing FlightAware
12:06AM 25.4360 54.5680 286° West 392 451 16,000 1,740 Climbing FlightAware
12:07AM 25.4520 54.5010 285° West 396 456 17,000 1,440 Climbing FlightAware
12:08AM 25.4710 54.4210 285° West 403 464 17,900 1,380 Climbing FlightAware
12:08AM 25.4890 54.3510 286° West 407 468 18,800 1,500 Climbing FlightAware
12:09AM 25.5060 54.2780 284° West 411 473 19,700 1,620 Climbing FlightAware
12:10AM 25.5260 54.1970 285° West 409 471 20,900 1,260 Climbing FlightAware
12:10AM 25.5440 54.1220 285° West 423 487 21,300 1,020 Climbing FlightAware
12:11AM 25.5640 54.0390 285° West 428 493 22,200 1,260 Climbing FlightAware
12:11AM 25.5790 53.9790 286° West 429 494 22,800 1,140 Climbing FlightAware
12:12AM 25.6040 53.9010 290° West 433 498 23,500 960 Climbing FlightAware
12:12AM 25.6260 53.8330 290° West 440 506 23,900 780 Climbing FlightAware
12:13AM 25.6520 53.7570 291° West 446 513 24,400 900 Climbing FlightAware
12:14AM 25.6810 53.6710 291° West 449 517 25,100 1,020 Climbing FlightAware
12:14AM 25.7070 53.5920 290° West 454 522 25,700 960 Climbing FlightAware
12:15AM 25.7300 53.5240 291° West 457 526 26,200 900 Climbing FlightAware
12:15AM 25.7540 53.4520 290° West 459 528 26,700 960 Climbing FlightAware
12:16AM 25.7820 53.3660 290° West 462 532 27,400 900 Climbing FlightAware
12:17AM 25.8070 53.2920 291° West 465 535 27,800 660 Climbing FlightAware
12:17AM 25.8340 53.2100 290° West 469 540 28,200 660 Climbing FlightAware
12:18AM 25.8680 53.1210 293° West 473 544 28,700 660 Climbing FlightAware
12:19AM 25.9020 53.0380 294° West 480 552 29,100 600 Climbing FlightAware
12:19AM 25.9360 52.9540 294° West 484 557 29,500 600 Climbing FlightAware
12:20AM 25.9660 52.8810 295° West 486 559 29,800 660 Climbing FlightAware
12:20AM 26.0000 52.7970 294° West 486 559 30,300 780 Climbing FlightAware
12:21AM 26.0320 52.7180 294° West 487 560 30,800 840 Climbing FlightAware
12:21AM 26.0650 52.6450 297° West 485 558 31,300 840 Climbing FlightAware
12:22AM 26.1010 52.5670 297° West 486 559 31,800 780 Climbing FlightAware
12:23AM 26.1340 52.4940 297° West 485 558 32,200 900 Climbing FlightAware
12:23AM 26.1800 52.3920 297° West 486 559 33,000 1,020 Climbing FlightAware
12:24AM 26.2160 52.3120 297° West 482 555 33,600 1,020 Climbing FlightAware
12:24AM 26.2490 52.2370 296° West 479 551 34,200 1,020 Climbing FlightAware
12:25AM 26.2860 52.1670 301° West 478 550 34,800 1,020 Climbing FlightAware
12:26AM 26.3280 52.0910 302° West 476 548 35,400 1,020 Climbing FlightAware
12:26AM 26.3660 52.0220 302° West 474 545 36,000 900 Climbing FlightAware
12:27AM 26.4170 51.9300 302° West 473 544 36,600 780 Climbing FlightAware
12:28AM 26.4630 51.8450 301° West 469 540 37,200 600 Climbing FlightAware
12:28AM 26.5060 51.7670 302° West 472 543 37,500 480 Climbing FlightAware
12:29AM 26.5520 51.6830 301° West 473 544 37,900 420 Climbing FlightAware
12:29AM 26.5900 51.6140 302° West 476 548 38,000 60 Climbing FlightAware
12:30AM 26.6300 51.5400 301° West 476 548 38,000  Level FlightAware
12:31AM 26.6710 51.4650 301° West 474 545 38,000  Level FlightAware
12:31AM 26.7090 51.3960 302° West 472 543 38,000  Level FlightAware
12:32AM 26.7580 51.3050 301° West 474 545 38,000  Level FlightAware
12:32AM 26.7980 51.2320 302° West 474 545 38,000  Level FlightAware
12:33AM 26.8450 51.1460 302° West 473 544 38,000  Level FlightAware
12:34AM 26.8890 51.0640 301° West 472 543 38,000  Level FlightAware
12:34AM 26.9350 50.9790 301° West 473 544 38,000  Level FlightAware
12:35AM 26.9750 50.9050 301° West 473 544 38,000  Level FlightAware
12:36AM 27.0140 50.8320 301° West 473 544 38,000  Level FlightAware
12:36AM 27.0660 50.7330 301° West 474 545 38,000  Level FlightAware
12:37AM 27.1100 50.6530 302° West 474 545 38,000  Level FlightAware
12:38AM 27.1600 50.5580 301° West 474 545 38,000  Level FlightAware
12:39AM 27.1930 50.4920 299° West 474 545 38,000  Level FlightAware
12:39AM 27.2270 50.4270 300° West 474 545 38,000  Level FlightAware
12:40AM 27.2610 50.3620 300° West 474 545 38,000  Level FlightAware
12:40AM 27.2940 50.2960 299° West 474 545 38,000  Level FlightAware
12:41AM 27.3280 50.2310 301° West 474 545 38,000  Level FlightAware
12:42AM 27.3610 50.1660 300° West 474 545 38,000  Level FlightAware
12:42AM 27.3950 50.1000 300° West 474 545 38,000  Level FlightAware
12:43AM 27.4280 50.0350 300° West 474 545 38,000  Level FlightAware
12:43AM 27.4620 49.9690 300° West 474 545 38,000  Level FlightAware
12:44AM 27.4950 49.9040 300° West 474 545 38,000  Level FlightAware
12:45AM 27.6100 49.7130 304° West 464 534 38,000  Level FlightAware
12:45AM 27.6450 49.6560 305° West 464 534 38,000  Level FlightAware
12:46AM 27.6830 49.5950 305° West 464 534 38,000  Level FlightAware
12:46AM 27.7210 49.5340 305° West 464 534 38,000  Level FlightAware
12:47AM 27.7580 49.4730 304° West 464 534 38,000  Level FlightAware
12:47AM 27.7970 49.4110 305° West 464 534 38,000  Level FlightAware
12:48AM 27.8350 49.3500 305° West 464 534 38,000  Level FlightAware
12:49AM 27.8720 49.2890 304° West 464 534 38,000  Level FlightAware
12:49AM 27.9100 49.2280 305° West 464 534 38,000  Level FlightAware
12:50AM 27.9480 49.1670 305° West 464 534 38,000  Level FlightAware
12:50AM 27.9850 49.1060 304° West 464 534 38,000  Level FlightAware
12:51AM 28.0230 49.0450 305° West 464 534 38,000  Level FlightAware
12:52AM 28.0620 48.9830 305° West 464 534 38,000  Level FlightAware
12:52AM 28.0990 48.9220 305° West 464 534 38,000  Level FlightAware
12:53AM 28.1480 48.8440 305° West 464 534 38,000  Level FlightAware
12:54AM 28.1860 48.7810 304° West 464 534 38,000  Level FlightAware
12:54AM 28.2240 48.7200 305° West 464 534 38,000  Level FlightAware
12:57AM 28.4115 48.5813 327° Northwest  Level Estimated
12:58AM 28.4954 48.5190 327° Northwest  Level Estimated
12:59AM 28.5793 48.4566 327° Northwest  Level Estimated
01:00AM 28.6632 48.3942 327° Northwest  Level Estimated
01:01AM 28.7470 48.3316 327° Northwest  Level Estimated
01:02AM 28.8308 48.2689 327° Northwest  Level Estimated
01:03AM 28.9146 48.2062 327° Northwest  Level Estimated
01:04AM 28.9983 48.1433 327° Northwest  Level Estimated
01:05AM 29.0821 48.0803 327° Northwest  Level Estimated
01:06AM 29.1658 48.0173 327° Northwest  Level Estimated
01:07AM 29.2494 47.9541 327° Northwest  Level Estimated
01:08AM 29.3330 47.8908 327° Northwest  Level Estimated
01:09AM 29.4166 47.8274 327° Northwest  Level Estimated
01:10AM 29.5002 47.7639 327° Northwest  Level Estimated
01:11AM 29.5837 47.7003 326° Northwest  Level Estimated
01:12AM 29.6673 47.6366 326° Northwest  Level Estimated
01:13AM 29.7507 47.5728 326° Northwest  Level Estimated
01:14AM 29.8342 47.5089 326° Northwest  Level Estimated
01:15AM 29.9176 47.4449 326° Northwest  Level Estimated
01:16AM 30.0010 47.3808 326° Northwest  Level Estimated
01:17AM 30.0843 47.3166 326° Northwest  Level Estimated
01:18AM 30.1677 47.2522 326° Northwest  Level Estimated
01:19AM 30.2509 47.1878 326° Northwest  Level Estimated
01:20AM 30.3342 47.1232 326° Northwest  Level Estimated
01:21AM 30.4174 47.0585 326° Northwest  Level Estimated
01:22AM 30.5006 46.9938 326° Northwest  Level Estimated
01:23AM 30.5838 46.9289 326° Northwest  Level Estimated
01:24AM 30.6669 46.8639 326° Northwest  Level Estimated
01:25AM 30.7500 46.7988 326° Northwest  Level Estimated
01:26AM 30.8331 46.7335 326° Northwest  Level Estimated
01:27AM 30.9161 46.6682 326° Northwest  Level Estimated
01:28AM 30.9991 46.6027 326° Northwest  Level Estimated
01:29AM 31.0821 46.5372 326° Northwest  Level Estimated
01:30AM 31.1650 46.4715 326° Northwest  Level Estimated
01:31AM 31.2479 46.4057 326° Northwest  Level Estimated
01:32AM 31.3308 46.3398 326° Northwest  Level Estimated
01:32AM 32.2220 45.5440 326° Northwest 430 495 38,000  Level FlightAware
01:32AM 32.2760 45.4860 318° Northwest 430 495 38,000  Level FlightAware
01:33AM 32.3380 45.4170 317° Northwest 430 495 38,000  Level FlightAware
01:34AM 32.3950 45.3560 318° Northwest 428 493 38,000  Level FlightAware
01:34AM 32.4480 45.2990 318° Northwest 427 491 38,000  Level FlightAware
01:35AM 32.4950 45.2470 317° Northwest 425 489 38,000  Level FlightAware
01:35AM 32.5480 45.1890 317° Northwest 425 489 38,000  Level FlightAware
01:36AM 32.6040 45.1270 317° Northwest 428 493 38,000  Level FlightAware
01:36AM 32.6550 45.0800 322° Northwest 436 502 38,000  Level FlightAware
01:37AM 32.7150 45.0380 330° Northwest 444 511 38,000  Level FlightAware
01:38AM 32.7860 44.9960 334° Northwest 447 514 38,000  Level FlightAware
01:38AM 32.8480 44.9590 333° Northwest 448 516 38,000  Level FlightAware
01:39AM 32.9110 44.9210 333° Northwest 449 517 38,000  Level FlightAware
01:39AM 32.9780 44.8800 333° Northwest 449 517 38,000  Level FlightAware
01:40AM 33.0410 44.8410 333° Northwest 447 514 38,000  Level FlightAware
01:41AM 33.1070 44.8010 333° Northwest 446 513 38,000  Level FlightAware
01:41AM 33.1720 44.7610 333° Northwest 445 512 38,000  Level FlightAware
01:42AM 33.2320 44.7280 335° Northwest 452 520 38,000  Level FlightAware
01:42AM 33.3060 44.6990 342° North 458 527 38,000  Level FlightAware
01:43AM 33.3820 44.6720 343° North 456 525 38,000  Level FlightAware
01:43AM 33.4470 44.6480 343° North 456 525 38,000  Level FlightAware
01:44AM 33.5190 44.6220 343° North 455 524 38,000  Level FlightAware
01:45AM 33.5890 44.5890 339° North 449 517 38,000  Level FlightAware
01:45AM 33.6500 44.5590 338° Northwest 451 519 38,000  Level FlightAware
01:46AM 33.7180 44.5260 338° Northwest 451 519 38,000  Level FlightAware
01:46AM 33.7940 44.4890 338° Northwest 449 517 38,000  Level FlightAware
01:47AM 33.8560 44.4580 337° Northwest 449 517 38,000  Level FlightAware
01:48AM 33.9250 44.4240 338° Northwest 450 518 38,000  Level FlightAware
01:48AM 33.9940 44.3900 338° Northwest 447 514 38,000  Level FlightAware
01:49AM 34.0620 44.3560 338° Northwest 447 514 38,000  Level FlightAware
01:49AM 34.1230 44.3260 338° Northwest 445 512 38,000  Level FlightAware
01:50AM 34.1910 44.2920 338° Northwest 444 511 38,000  Level FlightAware
01:50AM 34.2590 44.2590 338° Northwest 444 511 38,000  Level FlightAware
01:51AM 34.3280 44.2240 337° Northwest 446 513 38,000  Level FlightAware
01:52AM 34.3880 44.1940 338° Northwest 446 513 38,000  Level FlightAware
01:52AM 34.4580 44.1590 338° Northwest 446 513 38,000  Level FlightAware
01:53AM 34.5540 44.1100 337° Northwest 446 513 38,000  Level FlightAware
01:54AM 34.6120 44.0800 337° Northwest 446 513 38,000  Level FlightAware
01:54AM 34.6720 44.0490 337° Northwest 446 513 38,000  Level FlightAware
01:55AM 34.7300 44.0190 337° Northwest 446 513 38,000  Level FlightAware
01:56AM 34.8290 43.9660 336° Northwest 438 504 38,000  Level FlightAware
01:56AM 34.8850 43.9360 336° Northwest 438 504 38,000  Level FlightAware
01:57AM 34.9620 43.8940 336° Northwest 437 503 38,000  Level FlightAware
01:57AM 35.0210 43.8630 337° Northwest 437 503 38,000  Level FlightAware
01:58AM 35.1190 43.8110 337° Northwest 438 504 38,000  Level FlightAware
01:59AM 35.1870 43.7760 337° Northwest 442 509 38,000  Level FlightAware
01:59AM 35.2530 43.7410 337° Northwest 445 512 38,000  Level FlightAware
02:00AM 35.3460 43.6910 336° Northwest 445 512 38,000  Level FlightAware
02:01AM 35.4040 43.6590 336° Northwest 445 512 38,000  Level FlightAware
02:01AM 35.4610 43.6280 336° Northwest 445 512 38,000  Level FlightAware
02:02AM 35.5200 43.5960 336° Northwest 445 512 38,000  Level FlightAware
02:03AM 35.5780 43.5640 336° Northwest 445 512 38,000  Level FlightAware
02:03AM 35.6350 43.5330 336° Northwest 445 512 38,000  Level FlightAware
02:04AM 35.6930 43.5010 336° Northwest 445 512 38,000  Level FlightAware
02:04AM 35.7510 43.4690 336° Northwest 445 512 38,000  Level FlightAware
02:05AM 35.8080 43.4380 336° Northwest 445 512 38,000  Level FlightAware
02:06AM 35.8660 43.4060 336° Northwest 445 512 38,000  Level FlightAware
02:06AM 35.9250 43.3740 336° Northwest 445 512 38,000  Level FlightAware
02:07AM 35.9820 43.3420 336° Northwest 445 512 38,000  Level FlightAware
02:07AM 36.0400 43.3100 336° Northwest 445 512 38,000  Level FlightAware
02:08AM 36.0970 43.2790 336° Northwest 445 512 38,000  Level FlightAware
02:09AM 36.1570 43.2460 336° Northwest 445 512 38,000  Level FlightAware
02:09AM 36.2140 43.2140 336° Northwest 445 512 38,000  Level FlightAware
02:12AM 36.3939 43.0419 322° Northwest  Level Estimated
02:13AM 36.4731 42.9658 322° Northwest  Level Estimated
02:14AM 36.5524 42.8895 322° Northwest  Level Estimated
02:15AM 36.6316 42.8130 322° Northwest  Level Estimated
02:16AM 36.7107 42.7364 322° Northwest  Level Estimated
02:17AM 36.7898 42.6596 322° Northwest  Level Estimated
02:18AM 36.8688 42.5826 322° Northwest  Level Estimated
02:19AM 36.9478 42.5055 322° Northwest  Level Estimated
02:20AM 37.0267 42.4282 322° Northwest  Level Estimated
02:21AM 37.1056 42.3508 322° Northwest  Level Estimated
02:22AM 37.1844 42.2732 322° Northwest  Level Estimated
02:23AM 37.2632 42.1955 322° Northwest  Level Estimated
02:24AM 37.3419 42.1176 322° Northwest  Level Estimated
02:25AM 37.4206 42.0395 322° Northwest  Level Estimated
02:26AM 37.4992 41.9612 322° Northwest  Level Estimated
02:27AM 37.5778 41.8828 322° Northwest  Level Estimated
02:28AM 37.6563 41.8043 322° Northwest  Level Estimated
02:29AM 37.7348 41.7255 322° Northwest  Level Estimated
02:30AM 37.8132 41.6466 322° Northwest  Level Estimated
02:31AM 37.8916 41.5676 321° Northwest  Level Estimated
02:32AM 37.9699 41.4883 321° Northwest  Level Estimated
02:33AM 38.0482 41.4089 321° Northwest  Level Estimated
02:34AM 38.1264 41.3293 321° Northwest  Level Estimated
02:35AM 38.2045 41.2496 321° Northwest  Level Estimated
02:36AM 38.2826 41.1697 321° Northwest  Level Estimated
02:37AM 38.3607 41.0896 321° Northwest  Level Estimated
02:38AM 38.4387 41.0093 321° Northwest  Level Estimated
02:39AM 38.5166 40.9289 321° Northwest  Level Estimated
02:40AM 38.5945 40.8483 321° Northwest  Level Estimated
02:41AM 38.6723 40.7675 321° Northwest  Level Estimated
02:42AM 38.7501 40.6865 321° Northwest  Level Estimated
02:43AM 38.8278 40.6054 321° Northwest  Level Estimated
02:44AM 38.9054 40.5240 321° Northwest  Level Estimated
02:45AM 38.9830 40.4425 321° Northwest  Level Estimated
02:46AM 39.0606 40.3609 321° Northwest  Level Estimated
02:47AM 39.1381 40.2790 321° Northwest  Level Estimated
02:48AM 39.2155 40.1970 321° Northwest  Level Estimated
02:49AM 39.2929 40.1147 321° Northwest  Level Estimated
02:50AM 39.3702 40.0323 321° Northwest  Level Estimated
02:51AM 39.4474 39.9498 320° Northwest  Level Estimated
02:52AM 39.5246 39.8670 320° Northwest  Level Estimated
02:53AM 39.6018 39.7841 320° Northwest  Level Estimated
02:54AM 39.6788 39.7009 320° Northwest  Level Estimated
02:55AM 39.7559 39.6176 320° Northwest  Level Estimated
02:56AM 39.8328 39.5341 320° Northwest  Level Estimated
02:57AM 39.9097 39.4504 320° Northwest  Level Estimated
02:58AM 39.9866 39.3665 320° Northwest  Level Estimated
02:59AM 40.0633 39.2825 320° Northwest  Level Estimated
03:00AM 40.1401 39.1982 320° Northwest  Level Estimated
03:01AM 40.2167 39.1138 320° Northwest  Level Estimated
03:02AM 40.2933 39.0291 320° Northwest  Level Estimated
03:03AM 40.3698 38.9443 320° Northwest  Level Estimated
03:04AM 40.4463 38.8592 320° Northwest  Level Estimated
03:05AM 40.5227 38.7740 320° Northwest  Level Estimated
03:06AM 40.5991 38.6886 320° Northwest  Level Estimated
03:07AM 40.6753 38.6030 320° Northwest  Level Estimated
03:08AM 40.7516 38.5172 320° Northwest  Level Estimated
03:09AM 40.8277 38.4312 319° Northwest  Level Estimated
03:10AM 40.9038 38.3450 319° Northwest  Level Estimated
03:11AM 40.9807 38.2577 319° Northwest  Level Estimated
03:12AM 41.0574 38.1701 319° Northwest  Level Estimated
03:13AM 41.1342 38.0824 319° Northwest  Level Estimated
03:14AM 41.2108 37.9944 319° Northwest  Level Estimated
03:15AM 41.2874 37.9063 319° Northwest  Level Estimated
03:16AM 41.3639 37.8179 319° Northwest  Level Estimated
03:17AM 41.4403 37.7294 319° Northwest  Level Estimated
03:18AM 41.5167 37.6406 319° Northwest  Level Estimated
03:19AM 41.5930 37.5516 319° Northwest  Level Estimated
03:20AM 41.6693 37.4624 319° Northwest  Level Estimated
03:21AM 41.7454 37.3730 319° Northwest  Level Estimated
03:22AM 41.8215 37.2834 319° Northwest  Level Estimated
03:23AM 41.8976 37.1935 319° Northwest  Level Estimated
03:24AM 41.9735 37.1035 319° Northwest  Level Estimated
03:24AM 42.0770 35.0050 319° Northwest 410 472 40,000  Level FlightAware
03:24AM 42.1230 34.9470 317° Northwest 408 470 40,000  Level FlightAware
03:25AM 42.1820 34.8710 316° Northwest 408 470 40,000  Level FlightAware
03:26AM 42.2240 34.8160 316° Northwest 408 470 40,000  Level FlightAware
03:27AM 42.3030 34.7150 317° Northwest 408 470 40,000  Level FlightAware
03:27AM 42.3200 34.6920 315° West 408 470 40,000  Level FlightAware
03:28AM 42.3630 34.6370 317° Northwest 408 470 40,000  Level FlightAware
03:28AM 42.4040 34.5820 315° West 408 470 40,000  Level FlightAware
03:29AM 42.5060 34.4500 316° Northwest 402 463 40,000  Level FlightAware
03:30AM 42.5650 34.3730 316° Northwest 402 463 40,000  Level FlightAware
03:30AM 42.6140 34.3080 316° Northwest 405 466 40,000  Level FlightAware
03:31AM 42.6600 34.2470 316° Northwest 406 467 40,000  Level FlightAware
03:32AM 42.7080 34.1840 316° Northwest 406 467 40,000  Level FlightAware
03:32AM 42.7550 34.1210 315° West 406 467 40,000  Level FlightAware
03:33AM 42.8040 34.0610 318° Northwest 409 471 40,000  Level FlightAware
03:33AM 42.8540 34.0040 320° Northwest 411 473 40,000  Level FlightAware
03:34AM 42.9060 33.9460 321° Northwest 412 474 40,000  Level FlightAware
03:34AM 42.9570 33.8870 320° Northwest 413 475 40,000  Level FlightAware
03:35AM 43.0080 33.8290 320° Northwest 413 475 40,000  Level FlightAware
03:36AM 43.0600 33.7690 320° Northwest 414 476 40,000  Level FlightAware
03:36AM 43.1110 33.7110 320° Northwest 415 478 40,000  Level FlightAware
03:37AM 43.1550 33.6600 320° Northwest 415 478 40,000  Level FlightAware
03:37AM 43.2070 33.6010 320° Northwest 415 478 40,000  Level FlightAware
03:38AM 43.2580 33.5420 320° Northwest 415 478 40,000  Level FlightAware
03:38AM 43.3090 33.4820 319° Northwest 413 475 40,000  Level FlightAware
03:39AM 43.3600 33.4230 320° Northwest 412 474 40,000  Level FlightAware
03:40AM 43.4180 33.3560 320° Northwest 412 474 40,000  Level FlightAware
03:40AM 43.4690 33.2960 320° Northwest 413 475 40,000  Level FlightAware
03:41AM 43.5200 33.2370 320° Northwest 415 478 40,000  Level FlightAware
03:41AM 43.5710 33.1760 319° Northwest 415 478 40,000  Level FlightAware
03:42AM 43.6220 33.1170 320° Northwest 415 478 40,000  Level FlightAware
03:43AM 43.6730 33.0570 320° Northwest 415 478 40,000  Level FlightAware
03:43AM 43.7230 32.9980 320° Northwest 414 476 40,000  Level FlightAware
03:44AM 43.7750 32.9360 319° Northwest 414 476 40,000  Level FlightAware
03:44AM 43.8250 32.8760 319° Northwest 414 476 40,000  Level FlightAware
03:45AM 43.8840 32.8060 319° Northwest 414 476 40,000  Level FlightAware
03:46AM 43.9260 32.7550 319° Northwest 416 479 40,000  Level FlightAware
03:46AM 43.9770 32.6940 319° Northwest 415 478 40,000  Level FlightAware
03:47AM 44.0280 32.6330 319° Northwest 415 478 40,000  Level FlightAware
03:47AM 44.0790 32.5710 319° Northwest 416 479 40,000  Level FlightAware
03:48AM 44.1300 32.5100 319° Northwest 417 480 40,000  Level FlightAware
03:48AM 44.1810 32.4490 319° Northwest 417 480 40,000  Level FlightAware
03:49AM 44.2330 32.3870 320° Northwest 419 482 40,000  Level FlightAware
03:50AM 44.2850 32.3270 320° Northwest 420 483 40,000  Level FlightAware
03:50AM 44.3360 32.2660 319° Northwest 419 482 40,000  Level FlightAware
03:51AM 44.3880 32.2050 320° Northwest 420 483 40,000  Level FlightAware
03:51AM 44.4400 32.1430 320° Northwest 421 484 40,000  Level FlightAware
03:52AM 44.4990 32.0730 320° Northwest 422 486 40,000  Level FlightAware
03:53AM 44.5440 32.0200 320° Northwest 420 483 40,000  Level FlightAware
03:53AM 44.5940 31.9570 318° Northwest 418 481 40,000  Level FlightAware
03:54AM 44.6440 31.8940 318° Northwest 419 482 40,000  Level FlightAware
03:54AM 44.6950 31.8300 318° Northwest 420 483 40,000  Level FlightAware
03:55AM 44.7450 31.7670 318° Northwest 419 482 40,000  Level FlightAware
03:56AM 44.8030 31.6940 318° Northwest 418 481 40,000  Level FlightAware
03:56AM 44.8460 31.6400 318° Northwest 415 478 40,000  Level FlightAware
03:57AM 44.8960 31.5760 318° Northwest 412 474 40,000  Level FlightAware
03:57AM 44.9420 31.5180 318° Northwest 410 472 40,000  Level FlightAware
03:58AM 44.9940 31.4510 318° Northwest 407 468 40,000  Level FlightAware
03:58AM 45.0420 31.3890 318° Northwest 406 467 40,000  Level FlightAware
03:59AM 45.0880 31.3310 318° Northwest 406 467 40,000  Level FlightAware
04:00AM 45.1510 31.2500 318° Northwest 408 470 40,000  Level FlightAware
04:00AM 45.2000 31.1870 318° Northwest 409 471 40,000  Level FlightAware
04:01AM 45.2480 31.1250 318° Northwest 410 472 40,000  Level FlightAware
04:01AM 45.2980 31.0610 318° Northwest 411 473 40,000  Level FlightAware
04:02AM 45.3560 30.9900 319° Northwest 409 471 40,000  Level FlightAware
04:03AM 45.3980 30.9370 318° Northwest 402 463 40,000  Level FlightAware
04:03AM 45.4410 30.8830 319° Northwest 397 457 40,000  Level FlightAware
04:04AM 45.4940 30.8160 318° Northwest 396 456 40,000  Level FlightAware
04:04AM 45.5400 30.7580 319° Northwest 395 455 40,000  Level FlightAware
04:05AM 45.5900 30.6950 319° Northwest 395 455 40,000  Level FlightAware
04:05AM 45.6370 30.6340 318° Northwest 395 455 40,000  Level FlightAware
04:06AM 45.6800 30.5790 318° Northwest 395 455 40,000  Level FlightAware
04:07AM 45.7320 30.5130 318° Northwest 398 458 40,000  Level FlightAware
04:07AM 45.7870 30.4420 318° Northwest 398 458 40,000  Level FlightAware
04:08AM 45.8340 30.3820 318° Northwest 395 455 40,000  Level FlightAware
04:09AM 45.8890 30.3110 318° Northwest 393 452 40,000  Level FlightAware
04:09AM 45.9300 30.2590 319° Northwest 391 450 40,000  Level FlightAware
04:10AM 45.9770 30.1980 318° Northwest 390 449 40,000  Level FlightAware
04:10AM 46.0300 30.1280 317° Northwest 390 449 40,000  Level FlightAware
04:11AM 46.0640 30.0840 318° Northwest 389 448 40,000  Level FlightAware
04:11AM 46.1250 30.0060 318° Northwest 388 447 40,000  Level FlightAware
04:12AM 46.1710 29.9450 317° Northwest 389 448 40,000  Level FlightAware
04:13AM 46.2120 29.8910 318° Northwest 390 449 40,000  Level FlightAware
04:13AM 46.2590 29.8290 318° Northwest 392 451 40,000  Level FlightAware
04:14AM 46.3060 29.7670 318° Northwest 394 453 40,000  Level FlightAware
04:14AM 46.3500 29.7090 318° Northwest 395 455 40,000  Level FlightAware
04:15AM 46.3970 29.6460 317° Northwest 394 453 40,000  Level FlightAware
04:16AM 46.4450 29.5790 316° Northwest 393 452 40,000  Level FlightAware
04:16AM 46.4880 29.5190 316° Northwest 394 453 40,000  Level FlightAware
04:17AM 46.5280 29.4640 317° Northwest 393 452 40,000  Level FlightAware
04:17AM 46.5860 29.3840 317° Northwest 394 453 40,000  Level FlightAware
04:18AM 46.6310 29.3210 316° Northwest 396 456 40,000  Level FlightAware
04:18AM 46.6780 29.2550 316° Northwest 395 455 40,000  Level FlightAware
04:19AM 46.7220 29.1940 316° Northwest 396 456 40,000  Level FlightAware
04:20AM 46.7670 29.1300 316° Northwest 396 456 40,000  Level FlightAware
04:20AM 46.8150 29.0630 316° Northwest 397 457 40,000  Level FlightAware
04:21AM 46.8620 28.9950 315° West 397 457 40,000  Level FlightAware
04:21AM 46.9160 28.9180 316° Northwest 398 458 40,000  Level FlightAware
04:22AM 46.9630 28.8530 317° Northwest 399 459 40,000  Level FlightAware
04:23AM 47.0080 28.7930 318° Northwest 399 459 40,000  Level FlightAware
04:23AM 47.0580 28.7260 318° Northwest 399 459 40,000  Level FlightAware
04:24AM 47.1050 28.6620 317° Northwest 398 458 40,000  Level FlightAware
04:24AM 47.1530 28.5970 317° Northwest 399 459 40,000  Level FlightAware
04:25AM 47.1980 28.5350 317° Northwest 400 460 40,000  Level FlightAware
04:26AM 47.2470 28.4680 317° Northwest 399 459 40,000  Level FlightAware
04:26AM 47.2950 28.4020 317° Northwest 401 461 40,000  Level FlightAware
04:27AM 47.3400 28.3400 317° Northwest 401 461 40,000  Level FlightAware
04:27AM 47.3890 28.2730 317° Northwest 401 461 40,000  Level FlightAware
04:28AM 47.4360 28.2070 316° Northwest 402 463 40,000  Level FlightAware
04:28AM 47.4830 28.1430 317° Northwest 401 461 40,000  Level FlightAware
04:29AM 47.5320 28.0740 316° Northwest 403 464 40,000  Level FlightAware
04:30AM 47.5790 28.0080 317° Northwest 404 465 40,000  Level FlightAware
04:30AM 47.6260 27.9420 317° Northwest 406 467 40,000  Level FlightAware
04:31AM 47.6740 27.8750 317° Northwest 406 467 40,000  Level FlightAware
04:31AM 47.7220 27.8080 317° Northwest 407 468 40,000  Level FlightAware
04:32AM 47.7680 27.7430 316° Northwest 407 468 40,000  Level FlightAware
04:33AM 47.8160 27.6750 316° Northwest 406 467 40,000  Level FlightAware
04:33AM 47.8630 27.6080 316° Northwest 405 466 40,000  Level FlightAware
04:34AM 47.9110 27.5410 317° Northwest 406 467 40,000  Level FlightAware
04:34AM 47.9570 27.4750 316° Northwest 406 467 40,000  Level FlightAware
04:35AM 48.0060 27.4050 316° Northwest 406 467 40,000  Level FlightAware
04:35AM 48.0530 27.3380 316° Northwest 406 467 40,000  Level FlightAware
04:36AM 48.1010 27.2690 316° Northwest 407 468 40,000  Level FlightAware
04:37AM 48.1480 27.2000 316° Northwest 406 467 40,000  Level FlightAware
04:37AM 48.1940 27.1340 316° Northwest 406 467 40,000  Level FlightAware
04:38AM 48.2430 27.0630 316° Northwest 406 467 40,000  Level FlightAware
04:39AM 48.3030 26.9760 316° Northwest 407 468 40,000  Level FlightAware
04:39AM 48.3580 26.8960 316° Northwest 408 470 40,000  Level FlightAware
04:40AM 48.4030 26.8300 316° Northwest 409 471 40,000  Level FlightAware
04:40AM 48.4620 26.7460 317° Northwest 409 471 40,000  Level FlightAware
04:41AM 48.5100 26.6780 317° Northwest 408 470 40,000  Level FlightAware
04:42AM 48.5640 26.6010 317° Northwest 408 470 40,000  Level FlightAware
04:42AM 48.6050 26.5420 316° Northwest 408 470 40,000  Level FlightAware
04:43AM 48.6520 26.4750 317° Northwest 408 470 40,000  Level FlightAware
04:43AM 48.7080 26.3950 317° Northwest 408 470 40,000  Level FlightAware
04:44AM 48.7470 26.3380 316° Northwest 408 470 40,000  Level FlightAware
04:45AM 48.7960 26.2680 317° Northwest 408 470 40,000  Level FlightAware
04:45AM 48.8440 26.1990 317° Northwest 408 470 40,000  Level FlightAware
04:46AM 48.8910 26.1300 316° Northwest 407 468 40,000  Level FlightAware
04:46AM 48.9360 26.0650 317° Northwest 407 468 40,000  Level FlightAware
04:47AM 48.9880 25.9880 316° Northwest 408 470 40,000  Level FlightAware
04:48AM 49.0410 25.9120 317° Northwest 409 471 40,000  Level FlightAware
04:48AM 49.0880 25.8430 316° Northwest 411 473 40,000  Level FlightAware
04:49AM 49.1310 25.7790 316° Northwest 412 474 40,000  Level FlightAware
04:49AM 49.1820 25.7030 316° Northwest 413 475 40,000  Level FlightAware
04:50AM 49.2300 25.6330 316° Northwest 415 478 40,000  Level FlightAware
04:50AM 49.2710 25.5720 316° Northwest 415 478 40,000  Level FlightAware
04:51AM 49.3260 25.4900 316° Northwest 415 478 40,000  Level FlightAware
04:52AM 49.3770 25.4140 316° Northwest 415 478 40,000  Level FlightAware
04:52AM 49.4260 25.3420 316° Northwest 414 476 40,000  Level FlightAware
04:53AM 49.4690 25.2780 316° Northwest 413 475 40,000  Level FlightAware
04:53AM 49.5190 25.2020 315° West 414 476 40,000  Level FlightAware
04:54AM 49.5670 25.1300 316° Northwest 415 478 40,000  Level FlightAware
04:55AM 49.6170 25.0550 316° Northwest 415 478 40,000  Level FlightAware
04:55AM 49.6620 24.9860 315° West 414 476 40,000  Level FlightAware
04:56AM 49.7110 24.9100 315° West 415 478 40,000  Level FlightAware
04:56AM 49.7590 24.8380 316° Northwest 414 476 40,000  Level FlightAware
04:57AM 49.7990 24.7750 315° West 414 476 40,000  Level FlightAware
04:57AM 49.8420 24.7090 315° West 413 475 40,000  Level FlightAware
04:58AM 49.9010 24.6190 316° Northwest 412 474 40,000  Level FlightAware
04:59AM 49.9420 24.5550 315° West 412 474 40,000  Level FlightAware
04:59AM 49.9910 24.4780 315° West 411 473 40,000  Level FlightAware
05:00AM 50.0410 24.4000 315° West 411 473 40,000  Level FlightAware
05:00AM 50.0840 24.3340 315° West 411 473 40,000  Level FlightAware
05:01AM 50.1320 24.2570 314° West 412 474 40,000  Level FlightAware
05:01AM 50.1760 24.1890 315° West 412 474 40,000  Level FlightAware
05:02AM 50.2260 24.1090 314° West 414 476 40,000  Level FlightAware
05:03AM 50.2740 24.0330 315° West 415 478 40,000  Level FlightAware
05:03AM 50.3220 23.9560 314° West 417 480 40,000  Level FlightAware
05:04AM 50.3670 23.8850 315° West 418 481 40,000  Level FlightAware
05:04AM 50.4160 23.8070 315° West 419 482 40,000  Level FlightAware
05:05AM 50.4590 23.7310 312° West 418 481 40,000  Level FlightAware
05:06AM 50.5050 23.6500 312° West 418 481 40,000  Level FlightAware
05:06AM 50.5500 23.5690 311° West 417 480 40,000  Level FlightAware
05:07AM 50.5970 23.4840 311° West 417 480 40,000  Level FlightAware
05:07AM 50.6400 23.4090 312° West 418 481 40,000 -180 Level FlightAware
05:08AM 50.6800 23.3370 311° West 420 483 39,800 -720 Descending FlightAware
05:09AM 50.7290 23.2490 311° West 421 484 39,200 -1,020 Descending FlightAware
05:09AM 50.7750 23.1670 312° West 423 487 38,600 -1,020 Descending FlightAware
05:10AM 50.8220 23.0820 311° West 423 487 38,000 -1,620 Descending FlightAware
05:10AM 50.8630 23.0080 311° West 427 491 36,800 -2,400 Descending FlightAware
05:11AM 50.9070 22.9270 311° West 423 487 35,300 -2,580 Descending FlightAware
05:11AM 50.9510 22.8490 312° West 420 483 33,900 -2,460 Descending FlightAware
05:12AM 51.0010 22.7570 311° West 416 479 32,400 -2,220 Descending FlightAware
05:13AM 51.0410 22.6840 311° West 410 472 31,300 -1,980 Descending FlightAware
05:13AM 51.0860 22.6010 311° West 404 465 30,200 -1,920 Descending FlightAware
05:14AM 51.1270 22.5260 311° West 400 460 29,100 -1,920 Descending FlightAware
05:14AM 51.1680 22.4500 311° West 395 455 28,000 -1,800 Descending FlightAware
05:15AM 51.2080 22.3760 311° West 391 450 27,000 -1,800 Descending FlightAware
05:15AM 51.2450 22.3060 310° West 387 445 26,000 -1,980 Descending FlightAware
05:16AM 51.2920 22.2190 311° West 385 443 24,700 -1,980 Descending FlightAware
05:17AM 51.3340 22.1410 311° West 383 441 23,600 -1,800 Descending FlightAware
05:17AM 51.3740 22.0650 310° West 380 437 22,600 -1,740 Descending FlightAware
05:18AM 51.4160 21.9980 315° West 376 433 21,600 -1,800 Descending FlightAware
05:18AM 51.4660 21.9380 323° Northwest 373 429 20,500 -1,800 Descending FlightAware
05:19AM 51.5140 21.8900 328° Northwest 369 425 19,500 -1,860 Descending FlightAware
05:20AM 51.5570 21.8370 323° Northwest 365 420 18,500 -1,920 Descending FlightAware
05:20AM 51.6080 21.7740 323° Northwest 360 414 17,300 -1,860 Descending FlightAware
05:21AM 51.6530 21.7200 323° Northwest 354 407 16,300 -1,740 Descending FlightAware
05:21AM 51.6980 21.6630 322° Northwest 350 403 15,300 -1,680 Descending FlightAware
05:22AM 51.7440 21.6080 323° Northwest 342 394 14,400 -1,620 Descending FlightAware
05:23AM 51.7850 21.5560 322° Northwest 341 392 13,500 -1,500 Descending FlightAware
05:23AM 51.8320 21.4980 323° Northwest 337 388 12,600 -1,260 Descending FlightAware
05:24AM 51.8750 21.4440 322° Northwest 333 383 12,000 -1,020 Descending FlightAware
05:24AM 51.9140 21.3960 323° Northwest 334 384 11,500 -840 Descending FlightAware
05:25AM 51.9590 21.3400 323° Northwest 332 382 11,100 -840 Descending FlightAware
05:25AM 52.0030 21.2850 322° Northwest 329 379 10,500 -900 Descending FlightAware
05:26AM 52.0420 21.2360 322° Northwest 312 359 10,100 -660 Descending FlightAware
05:27AM 52.0753 21.1942 322° Northwest 297 342 9,800 -600 Descending FlightAware ADS-B
05:27AM 52.0960 21.1679 322° Northwest 286 329 9,600 -780 Descending FlightAware ADS-B
05:27AM 52.1168 21.1417 322° Northwest 282 325 9,300 -1,140 Descending FlightAware ADS-B
05:27AM 52.1353 21.1183 322° Northwest 281 323 8,900 -1,080 Descending FlightAware ADS-B
05:28AM 52.1395 21.1131 322° Northwest 267 307 8,500 -720 Descending FlightAware ADS-B
05:28AM 52.1780 21.0644 322° Northwest 255 293 8,400 -480 Descending FlightAware ADS-B
05:29AM 52.2008 21.0355 322° Northwest 247 284 8,200 -840 Descending FlightAware ADS-B
05:29AM 52.2179 21.0138 322° Northwest 247 284 7,700 -960 Descending FlightAware ADS-B
05:29AM 52.2432 20.9817 322° Northwest 247 284 7,400 -1,080 Descending FlightAware ADS-B
05:30AM 52.2587 20.9596 319° Northwest 250 288 7,000 -720 Descending FlightAware ADS-B
05:30AM 52.2698 20.9213 295° West 249 287 6,900 -300 Descending FlightAware ADS-B
05:31AM 52.2805 20.8827 294° West 248 285 6,800 -180 Descending FlightAware ADS-B
05:31AM 52.2924 20.8411 295° West 249 287 6,800  Level FlightAware ADS-B
05:32AM 52.3106 20.7770 295° West 250 288 6,800  Level FlightAware ADS-B
05:32AM 52.3218 20.7368 295° West 250 288 6,800  Level FlightAware ADS-B
05:33AM 52.3400 20.6710 294° West 251 289 6,800  Level FlightAware
05:33AM 52.3510 20.6300 294° West 250 288 6,800  Level FlightAware
05:33AM 52.3570 20.6100 296° West 250 288 6,800  Level FlightAware
05:34AM 52.3680 20.5690 294° West 243 280 6,800  Level FlightAware
05:34AM 52.3700 20.5560 284° West 242 278 6,800 -480 Level FlightAware
05:34AM 52.3710 20.5470 280° West 241 277 6,700 -1,140 Descending FlightAware
05:34AM 52.3610 20.5110 246° West 238 274 6,300 -960 Descending FlightAware
05:34AM 52.3580 20.5070 219° Southwest 236 272 6,300 -540 Level FlightAware
05:34AM 52.3510 20.5000 211° Southwest 233 268 6,200 -1,080 Descending FlightAware
05:35AM 52.3300 20.4860 202° Southwest 231 266 5,800 -960 Descending FlightAware
05:35AM 52.3250 20.4850 187° South 228 262 5,800 -420 Level FlightAware
05:35AM 52.3040 20.5020 154° Southeast 218 251 5,600 -600 Descending FlightAware
05:35AM 52.2890 20.5280 133° Southeast 211 243 5,400 -600 Descending FlightAware
05:36AM 52.2810 20.5540 117° Southeast 201 231 5,200 -540 Descending FlightAware
05:36AM 52.2750 20.5760 114° Southeast 192 221 5,100 -540 Descending FlightAware
05:36AM 52.2680 20.6020 114° Southeast 183 211 4,900 -900 Descending FlightAware
05:37AM 52.2600 20.6290 116° Southeast 184 212 4,500 -1,200 Descending FlightAware
05:37AM 52.2530 20.6550 114° Southeast 185 213 4,100 -1,020 Descending FlightAware
05:37AM 52.2470 20.6750 116° Southeast 183 211 3,900 -1,200 Descending FlightAware
05:38AM 52.2421 20.6931 114° Southeast 184 212 3,500 -1,200 Descending FlightAware ADS-B
05:38AM 52.2307 20.7342 114° Southeast 181 208 3,000 -960 Descending FlightAware ADS-B
05:39AM 52.2200 20.7720 115° Southeast 175 201 2,500 -960 Descending FlightAware
05:39AM 52.2140 20.7960 112° Southeast 163 188 2,200 -900 Descending FlightAware
05:39AM 52.2080 20.8170 115° Southeast 151 174 1,900 -840 Descending FlightAware
05:40AM 52.2007 20.8419 115° Southeast 153 176 1,600 -780 Descending FlightAware ADS-B
05:40AM 52.1930 20.8690 115° Southeast 134 154 1,200 -720 Descending FlightAware
05:41AM 52.1870 20.8900 115° Southeast 135 155 1,000 -720 Descending FlightAware
05:41AM 52.1810 20.9110 115° Southeast 134 154 700 -840 Descending FlightAware
05:41AM 52.1760 20.9300 113° Southeast 130 150 400 -660 Descending FlightAware
05:41AM 52.1740 20.9370 115° Southeast 132 152 400  Level FlightAware
05:42AM 52.1670 20.9610 115° Southeast 92 106 -900 Descending FlightAware